Time;durP1;ratioP1;P1;durP2;ratioP2;P2;SDS_P1;SDS_P2;PMS_P1;PMS_P2;Temp;Humidity;BMP_temperature;BMP_pressure;BME280_temperature;BME280_humidity;BME280_pressure;Samples;Min_cycle;Max_cycle;Signal;HPM_P1;HPM_P2
2023/06/26 00:00:16;;;;;;;7.18;5.40;;;20.00;49.00;;;;;;5041432;28;20029;-62
2023/06/26 00:02:42;;;;;;;6.78;5.35;;;20.00;49.20;;;;;;5042630;28;20018;-63
2023/06/26 00:05:08;;;;;;;6.53;5.35;;;19.90;49.10;;;;;;5041500;28;20084;-63
2023/06/26 00:07:34;;;;;;;5.93;5.00;;;19.90;49.20;;;;;;5041561;28;20051;-63
2023/06/26 00:10:00;;;;;;;9.10;5.78;;;19.90;49.50;;;;;;5042239;28;20030;-64
2023/06/26 00:12:26;;;;;;;7.45;5.90;;;19.80;49.60;;;;;;5041441;28;20099;-63
2023/06/26 00:14:52;;;;;;;6.47;5.28;;;19.80;49.70;;;;;;5041289;28;20047;-62
2023/06/26 00:17:18;;;;;;;7.47;5.57;;;19.80;49.50;;;;;;5041460;28;20029;-62
2023/06/26 00:19:44;;;;;;;7.43;5.72;;;19.80;49.50;;;;;;5042520;28;20022;-62
2023/06/26 00:22:10;;;;;;;8.57;5.35;;;19.70;49.40;;;;;;5041255;28;20085;-63
2023/06/26 00:24:35;;;;;;;10.45;5.18;;;19.70;49.30;;;;;;5040703;28;20041;-62
2023/06/26 00:27:01;;;;;;;5.75;5.13;;;19.60;49.60;;;;;;5041973;28;20033;-62
2023/06/26 00:29:26;;;;;;;11.02;5.20;;;19.60;49.80;;;;;;5041514;28;20033;-62
2023/06/26 00:31:52;;;;;;;6.60;5.38;;;19.60;49.90;;;;;;5041172;28;20026;-63
2023/06/26 00:34:19;;;;;;;8.15;5.63;;;19.60;50.10;;;;;;5024549;28;20028;-63
2023/06/26 00:36:44;;;;;;;7.65;5.28;;;19.50;49.90;;;;;;5042131;28;20025;-62
2023/06/26 00:39:10;;;;;;;6.97;5.25;;;19.50;50.00;;;;;;5040871;28;20036;-62
2023/06/26 00:41:37;;;;;;;6.00;4.90;;;19.40;50.10;;;;;;5040693;28;20026;-63
2023/06/26 00:44:04;;;;;;;6.13;4.78;;;19.40;50.10;;;;;;5042140;28;20057;-62
2023/06/26 00:46:31;;;;;;;7.53;5.10;;;19.30;50.20;;;;;;5040981;28;20033;-63
2023/06/26 00:48:59;;;;;;;7.75;5.25;;;19.30;50.30;;;;;;5041229;28;20494;-62
2023/06/26 00:51:27;;;;;;;7.15;5.78;;;19.30;50.70;;;;;;5041900;28;20017;-63
2023/06/26 00:53:54;;;;;;;6.22;5.38;;;19.30;50.70;;;;;;5037769;28;20033;-62
2023/06/26 00:56:20;;;;;;;9.95;5.38;;;19.20;50.80;;;;;;5040775;28;20045;-63
2023/06/26 00:58:46;;;;;;;6.70;4.88;;;19.20;50.90;;;;;;5039796;28;20025;-62
2023/06/26 01:01:17;;;;;;;9.40;5.55;;;19.20;50.80;;;;;;5041695;28;20033;-64
2023/06/26 01:03:45;;;;;;;10.60;6.13;;;19.20;50.80;;;;;;5037494;28;20029;-63
2023/06/26 01:06:13;;;;;;;7.20;5.70;;;19.10;50.80;;;;;;5040560;28;20029;-64
2023/06/26 01:08:41;;;;;;;8.20;5.45;;;19.10;50.80;;;;;;5039965;28;20041;-62
2023/06/26 01:11:07;;;;;;;6.40;5.20;;;19.00;50.90;;;;;;5040658;28;20029;-63
2023/06/26 01:13:34;;;;;;;8.63;5.70;;;19.00;51.10;;;;;;5041638;28;20013;-63
2023/06/26 01:16:00;;;;;;;9.88;5.32;;;19.00;51.20;;;;;;5040831;28;20052;-63
2023/06/26 01:18:26;;;;;;;7.15;5.55;;;18.90;51.40;;;;;;5040318;28;20053;-63
2023/06/26 01:20:53;;;;;;;7.30;5.57;;;18.90;51.60;;;;;;5037150;28;20020;-63
2023/06/26 01:23:36;;;;;;;7.95;6.10;;;18.90;51.80;;;;;;5040502;28;20022;-62
2023/06/26 01:26:07;;;;;;;7.93;5.65;;;18.90;52.60;;;;;;5033730;28;20050;-62
2023/06/26 01:28:39;;;;;;;7.80;5.82;;;18.80;52.20;;;;;;5040557;28;20041;-62
2023/06/26 01:31:06;;;;;;;7.10;5.50;;;18.80;52.20;;;;;;5040593;28;20032;-62
2023/06/26 01:33:32;;;;;;;6.60;5.65;;;18.80;52.10;;;;;;5040237;28;20035;-63
2023/06/26 01:35:57;;;;;;;7.03;6.03;;;18.70;52.10;;;;;;5040437;28;20025;-63
2023/06/26 01:38:23;;;;;;;12.77;6.72;;;18.70;52.20;;;;;;4948174;28;21033;-63
2023/06/26 01:40:49;;;;;;;11.38;7.13;;;18.70;52.10;;;;;;5040428;28;20392;-62
2023/06/26 01:43:29;;;;;;;13.10;8.05;;;18.60;52.00;;;;;;5040852;28;20033;-62
2023/06/26 01:46:01;;;;;;;11.50;7.82;;;18.60;52.70;;;;;;5040596;28;20388;-62
2023/06/26 01:48:35;;;;;;;12.85;8.70;;;18.60;52.30;;;;;;5038927;28;20041;-63
2023/06/26 01:51:02;;;;;;;10.05;7.03;;;18.60;52.60;;;;;;5047336;28;20049;-62
2023/06/26 01:53:36;;;;;;;7.68;5.72;;;18.50;52.30;;;;;;5044300;28;20022;-63
2023/06/26 01:56:13;;;;;;;7.07;5.88;;;18.50;52.80;;;;;;5038171;28;20088;-63
2023/06/26 01:58:43;;;;;;;9.80;5.28;;;18.50;53.00;;;;;;5038492;28;20025;-62
2023/06/26 02:01:09;;;;;;;7.50;5.38;;;18.40;52.70;;;;;;5041037;28;20036;-63
2023/06/26 02:03:35;;;;;;;8.68;5.13;;;18.40;52.60;;;;;;5040225;28;20078;-63
2023/06/26 02:06:00;;;;;;;7.20;5.38;;;18.40;52.80;;;;;;5039923;28;20045;-61
2023/06/26 02:08:26;;;;;;;7.05;5.63;;;18.40;52.90;;;;;;5023810;28;20033;-62
2023/06/26 02:10:52;;;;;;;6.53;5.35;;;18.30;53.00;;;;;;5042082;28;20022;-63
2023/06/26 02:13:17;;;;;;;7.07;5.60;;;18.30;53.00;;;;;;5043898;28;20032;-63
2023/06/26 02:15:43;;;;;;;8.85;5.45;;;18.30;53.20;;;;;;5045659;28;20013;-63
2023/06/26 02:18:09;;;;;;;7.20;5.53;;;18.30;53.30;;;;;;5043857;28;20033;-62
2023/06/26 02:20:34;;;;;;;6.75;5.63;;;18.30;53.40;;;;;;5043364;28;20036;-63
2023/06/26 02:23:00;;;;;;;8.65;5.97;;;18.20;53.30;;;;;;5044281;28;20029;-63
2023/06/26 02:25:25;;;;;;;7.93;5.70;;;18.20;53.40;;;;;;5043076;28;20048;-63
2023/06/26 02:27:51;;;;;;;8.40;6.05;;;18.20;53.60;;;;;;5043176;28;20037;-62
2023/06/26 02:30:17;;;;;;;6.63;5.50;;;18.10;53.70;;;;;;5044455;28;20113;-62
2023/06/26 02:32:42;;;;;;;7.80;6.00;;;18.10;53.70;;;;;;5044443;28;20026;-63
2023/06/26 02:35:08;;;;;;;7.68;5.25;;;18.10;53.90;;;;;;5038695;28;20085;-63
2023/06/26 02:37:34;;;;;;;8.57;5.95;;;18.00;54.00;;;;;;5043454;28;20033;-62
2023/06/26 02:40:00;;;;;;;7.88;5.88;;;18.00;54.10;;;;;;5043956;28;20115;-62
2023/06/26 02:42:25;;;;;;;8.18;5.80;;;18.00;54.10;;;;;;5042747;28;20017;-63
2023/06/26 02:44:51;;;;;;;7.28;5.57;;;18.00;54.20;;;;;;5043348;28;20049;-63
2023/06/26 02:47:17;;;;;;;8.23;5.85;;;18.00;54.30;;;;;;5044220;28;20030;-63
2023/06/26 02:49:43;;;;;;;5.93;5.28;;;18.00;54.30;;;;;;5043263;28;20092;-63
2023/06/26 02:52:08;;;;;;;6.97;5.38;;;17.90;54.10;;;;;;5042891;28;20022;-63
2023/06/26 02:54:34;;;;;;;7.40;5.40;;;17.90;54.20;;;;;;5043838;28;20032;-61
2023/06/26 02:57:00;;;;;;;7.55;5.85;;;17.90;54.20;;;;;;5042978;28;20033;-62
2023/06/26 02:59:26;;;;;;;5.97;5.20;;;17.90;54.20;;;;;;5042803;28;20025;-62
2023/06/26 03:01:51;;;;;;;7.65;5.60;;;17.90;54.30;;;;;;5043042;28;20036;-62
2023/06/26 03:04:17;;;;;;;8.43;6.13;;;17.80;54.40;;;;;;5043422;28;20022;-62
2023/06/26 03:06:44;;;;;;;7.40;6.03;;;17.80;54.60;;;;;;5025267;28;20147;-62
2023/06/26 03:09:09;;;;;;;8.13;5.72;;;17.80;54.80;;;;;;5042585;28;20041;-64
2023/06/26 03:11:35;;;;;;;7.03;5.85;;;17.80;55.00;;;;;;5044696;28;20060;-63
2023/06/26 03:14:01;;;;;;;7.22;5.45;;;17.80;55.10;;;;;;5043315;28;20060;-62
2023/06/26 03:16:26;;;;;;;8.15;5.90;;;17.70;55.00;;;;;;5042649;28;20056;-63
2023/06/26 03:18:52;;;;;;;6.22;5.25;;;17.70;55.00;;;;;;5042060;28;20036;-61
2023/06/26 03:21:17;;;;;;;6.28;5.22;;;17.70;55.00;;;;;;5043164;28;20037;-62
2023/06/26 03:23:43;;;;;;;7.82;5.57;;;17.60;55.00;;;;;;5042247;28;20029;-63
2023/06/26 03:26:09;;;;;;;8.68;6.07;;;17.60;55.20;;;;;;5042067;28;20042;-62
2023/06/26 03:28:35;;;;;;;7.20;5.80;;;17.60;55.40;;;;;;5044543;28;20484;-64
2023/06/26 03:31:00;;;;;;;7.05;5.35;;;17.60;55.50;;;;;;5042257;28;20030;-62
2023/06/26 03:33:26;;;;;;;9.07;6.38;;;17.50;55.50;;;;;;5042289;28;20085;-63
2023/06/26 03:35:52;;;;;;;7.00;5.88;;;17.50;55.60;;;;;;5042841;28;20029;-63
2023/06/26 03:38:17;;;;;;;8.52;5.90;;;17.40;55.80;;;;;;5042518;28;20030;-63
2023/06/26 03:40:43;;;;;;;9.40;5.38;;;17.40;55.90;;;;;;5042085;28;20052;-63
2023/06/26 03:43:09;;;;;;;8.35;5.90;;;17.40;55.90;;;;;;5042063;28;20033;-62
2023/06/26 03:45:34;;;;;;;7.45;5.25;;;17.40;56.00;;;;;;5042818;28;20021;-63
2023/06/26 03:48:00;;;;;;;8.82;5.38;;;17.40;56.20;;;;;;5041655;28;20269;-63
2023/06/26 03:50:25;;;;;;;6.88;5.18;;;17.40;56.20;;;;;;5042062;28;20022;-63
2023/06/26 03:52:51;;;;;;;6.43;5.40;;;17.40;56.20;;;;;;5043014;28;20052;-63
2023/06/26 03:55:17;;;;;;;11.43;5.90;;;17.40;56.40;;;;;;5041975;28;20022;-63
2023/06/26 03:57:43;;;;;;;10.43;5.93;;;17.40;56.60;;;;;;5041650;28;20029;-63
2023/06/26 04:00:11;;;;;;;8.55;5.90;;;17.40;56.70;;;;;;5042565;28;20077;-62
2023/06/26 04:02:36;;;;;;;8.30;5.72;;;17.40;56.90;;;;;;5034668;28;20052;-63
2023/06/26 04:05:04;;;;;;;10.30;6.05;;;17.40;56.80;;;;;;5041833;28;20025;-62
2023/06/26 04:07:30;;;;;;;7.30;5.30;;;17.40;56.60;;;;;;5041237;28;20033;-63
2023/06/26 04:09:57;;;;;;;9.50;6.43;;;17.40;56.60;;;;;;5042488;28;20057;-63
2023/06/26 04:12:22;;;;;;;8.35;5.95;;;17.50;56.80;;;;;;5038115;28;20059;-64
2023/06/26 04:14:48;;;;;;;7.40;5.93;;;17.50;57.00;;;;;;5041899;28;20049;-63
2023/06/26 04:17:14;;;;;;;7.20;5.68;;;17.50;57.00;;;;;;5043213;28;20084;-63
2023/06/26 04:19:39;;;;;;;7.00;5.85;;;17.60;57.10;;;;;;5042965;28;20021;-62
2023/06/26 04:22:05;;;;;;;7.90;6.20;;;17.60;57.10;;;;;;5043457;28;20192;-63
2023/06/26 04:24:31;;;;;;;8.23;6.05;;;17.70;57.00;;;;;;5043632;28;20049;-62
2023/06/26 04:26:57;;;;;;;9.73;6.28;;;17.80;57.10;;;;;;5043091;28;20025;-63
2023/06/26 04:29:25;;;;;;;8.55;5.90;;;17.80;57.00;;;;;;5041006;28;20065;-62
2023/06/26 04:31:51;;;;;;;8.32;5.95;;;17.90;57.00;;;;;;5041021;28;20035;-63
2023/06/26 04:34:17;;;;;;;11.27;6.55;;;17.90;56.90;;;;;;5040941;28;20021;-62
2023/06/26 04:36:46;;;;;;;11.43;6.20;;;18.00;56.80;;;;;;5042092;28;20048;-64
2023/06/26 04:39:12;;;;;;;11.00;5.53;;;18.10;56.70;;;;;;5040624;28;20111;-62
2023/06/26 04:41:37;;;;;;;7.80;5.85;;;18.20;56.80;;;;;;5040679;28;20476;-63
2023/06/26 04:44:03;;;;;;;8.05;6.25;;;18.20;56.80;;;;;;5041173;28;20029;-63
2023/06/26 04:46:29;;;;;;;7.47;5.70;;;18.30;56.90;;;;;;5041366;28;20025;-63
2023/06/26 04:48:57;;;;;;;7.05;5.75;;;18.40;56.90;;;;;;5040725;28;20038;-63
2023/06/26 04:51:26;;;;;;;7.13;6.15;;;18.50;56.90;;;;;;5040541;28;20060;-64
2023/06/26 04:53:52;;;;;;;8.23;6.15;;;18.50;56.90;;;;;;5040771;28;20044;-63
2023/06/26 04:56:18;;;;;;;10.20;6.32;;;18.60;57.00;;;;;;5041931;28;20496;-63
2023/06/26 04:58:44;;;;;;;11.30;6.55;;;18.70;57.00;;;;;;5040718;28;20025;-63
2023/06/26 05:01:10;;;;;;;8.10;6.20;;;18.80;57.00;;;;;;5024828;28;20048;-64
2023/06/26 05:03:36;;;;;;;8.20;6.20;;;18.90;56.90;;;;;;5046542;28;20554;-63
2023/06/26 05:06:02;;;;;;;9.75;6.50;;;19.00;56.90;;;;;;5041769;28;20035;-63
2023/06/26 05:08:28;;;;;;;8.70;6.30;;;19.10;56.60;;;;;;5040541;28;20037;-64
2023/06/26 05:10:57;;;;;;;10.32;6.90;;;19.20;56.70;;;;;;5041884;28;20045;-63
2023/06/26 05:13:23;;;;;;;10.32;6.90;;;19.30;56.90;;;;;;5037855;28;20013;-63
2023/06/26 05:15:49;;;;;;;13.15;7.38;;;19.40;57.10;;;;;;5040406;28;20052;-62
2023/06/26 05:18:14;;;;;;;14.75;6.70;;;19.50;57.00;;;;;;5040652;28;20029;-62
2023/06/26 05:20:40;;;;;;;12.50;7.00;;;19.60;56.80;;;;;;5041685;28;20041;-62
2023/06/26 05:23:06;;;;;;;9.65;7.13;;;19.70;56.80;;;;;;5041328;28;20025;-63
2023/06/26 05:25:33;;;;;;;11.00;6.82;;;19.80;56.60;;;;;;5040325;28;20101;-63
2023/06/26 05:28:00;;;;;;;12.93;6.97;;;19.90;56.50;;;;;;5037106;28;20029;-62
2023/06/26 05:30:26;;;;;;;10.65;7.05;;;20.00;56.40;;;;;;5041648;28;20010;-62
2023/06/26 05:32:53;;;;;;;13.25;7.45;;;20.10;56.40;;;;;;5041100;28;20041;-63
2023/06/26 05:35:22;;;;;;;9.63;6.78;;;20.30;56.30;;;;;;5040272;28;20038;-63
2023/06/26 05:37:50;;;;;;;11.57;6.32;;;20.40;56.40;;;;;;5021905;28;20026;-63
2023/06/26 05:40:16;;;;;;;10.40;6.40;;;20.50;56.20;;;;;;4926449;28;20037;-63
2023/06/26 05:42:42;;;;;;;11.93;7.15;;;20.60;56.10;;;;;;5040043;28;20036;-63
2023/06/26 05:45:09;;;;;;;13.02;7.15;;;20.70;55.70;;;;;;5041006;28;20480;-63
2023/06/26 05:47:34;;;;;;;10.63;7.35;;;20.80;55.60;;;;;;5044063;28;20026;-64
2023/06/26 05:50:00;;;;;;;11.18;7.43;;;21.00;55.70;;;;;;5044979;28;20029;-63
2023/06/26 05:52:26;;;;;;;12.50;6.85;;;21.10;55.60;;;;;;5044017;28;20029;-63
2023/06/26 05:54:52;;;;;;;9.75;6.80;;;21.20;55.50;;;;;;5044002;28;20078;-63
2023/06/26 05:57:18;;;;;;;12.82;7.43;;;21.30;55.60;;;;;;5044715;28;20025;-63
2023/06/26 05:59:46;;;;;;;12.25;7.40;;;21.40;55.40;;;;;;5044054;28;20036;-62
2023/06/26 06:02:12;;;;;;;10.82;6.70;;;21.50;55.10;;;;;;5044073;28;20093;-63
2023/06/26 06:04:38;;;;;;;10.25;7.10;;;21.70;54.90;;;;;;5043683;28;20108;-62
2023/06/26 06:07:04;;;;;;;9.43;6.70;;;21.80;54.30;;;;;;5044668;28;20092;-62
2023/06/26 06:09:30;;;;;;;9.02;6.85;;;22.00;53.80;;;;;;5043932;28;20044;-62
2023/06/26 06:11:55;;;;;;;9.48;6.40;;;22.10;53.60;;;;;;5043604;28;20112;-62
2023/06/26 06:14:21;;;;;;;8.23;6.40;;;22.20;53.50;;;;;;5027281;28;20022;-62
2023/06/26 06:16:46;;;;;;;10.18;6.72;;;22.30;53.30;;;;;;5039319;28;20075;-62
2023/06/26 06:19:13;;;;;;;13.85;7.40;;;22.50;53.20;;;;;;5043318;28;20026;-62
2023/06/26 06:21:39;;;;;;;8.43;6.35;;;22.60;52.70;;;;;;5044392;28;20100;-63
2023/06/26 06:24:06;;;;;;;11.82;7.30;;;22.70;52.50;;;;;;5036266;28;20032;-63
2023/06/26 06:26:32;;;;;;;8.15;6.22;;;22.90;52.30;;;;;;5043480;28;20040;-62
2023/06/26 06:28:58;;;;;;;10.40;7.35;;;23.00;52.20;;;;;;5043239;28;20056;-64
2023/06/26 06:31:24;;;;;;;9.45;7.50;;;23.20;52.00;;;;;;5044704;28;20033;-63
2023/06/26 06:33:50;;;;;;;10.63;7.80;;;23.30;51.80;;;;;;5043287;28;20021;-63
2023/06/26 06:36:15;;;;;;;11.15;8.20;;;23.50;52.30;;;;;;5042097;28;20022;-63
2023/06/26 06:38:44;;;;;;;16.27;7.95;;;23.60;51.60;;;;;;5040666;28;20021;-63
2023/06/26 06:41:10;;;;;;;9.45;7.57;;;23.80;51.30;;;;;;5026191;28;20040;-63
2023/06/26 06:43:36;;;;;;;8.93;7.35;;;23.90;51.30;;;;;;5025433;28;20026;-62
2023/06/26 06:46:02;;;;;;;12.77;7.35;;;24.00;50.90;;;;;;5042853;28;20407;-62
2023/06/26 06:48:28;;;;;;;10.13;7.68;;;24.20;50.70;;;;;;5043983;28;20041;-64
2023/06/26 06:50:53;;;;;;;8.63;6.97;;;24.30;50.50;;;;;;5042528;28;20097;-61
2023/06/26 06:53:22;;;;;;;8.52;7.03;;;24.50;50.70;;;;;;5043155;28;20103;-63
2023/06/26 06:55:49;;;;;;;10.32;6.70;;;24.60;50.60;;;;;;5042183;28;20550;-64
2023/06/26 06:58:16;;;;;;;9.25;6.93;;;24.70;50.40;;;;;;5044160;28;20043;-63
2023/06/26 07:00:42;;;;;;;9.05;7.57;;;24.90;50.30;;;;;;5042386;28;20575;-62
2023/06/26 07:03:08;;;;;;;9.80;7.57;;;25.00;50.10;;;;;;5042978;28;20048;-63
2023/06/26 07:05:33;;;;;;;11.80;6.55;;;25.20;50.00;;;;;;5043703;28;20052;-63
2023/06/26 07:07:59;;;;;;;9.80;6.95;;;25.30;49.90;;;;;;5042263;28;20103;-64
2023/06/26 07:10:25;;;;;;;8.48;6.53;;;25.40;49.60;;;;;;5042278;28;20017;-63
2023/06/26 07:12:50;;;;;;;11.35;6.30;;;25.50;49.60;;;;;;5043223;28;20101;-62
2023/06/26 07:15:17;;;;;;;8.18;6.85;;;25.70;49.70;;;;;;5042953;28;20064;-63
2023/06/26 07:17:42;;;;;;;12.10;6.80;;;25.80;49.30;;;;;;5042358;28;20026;-63
2023/06/26 07:20:10;;;;;;;8.05;6.82;;;26.00;49.20;;;;;;5042472;28;20032;-63
2023/06/26 07:22:36;;;;;;;8.63;6.22;;;26.20;48.90;;;;;;5039146;28;20592;-63
2023/06/26 07:25:03;;;;;;;8.10;6.40;;;26.30;49.00;;;;;;5042200;28;20057;-64
2023/06/26 07:27:29;;;;;;;7.72;6.57;;;26.40;48.60;;;;;;5042382;28;20025;-63
2023/06/26 07:29:55;;;;;;;10.63;6.55;;;26.50;48.50;;;;;;5042321;28;20030;-62
2023/06/26 07:32:20;;;;;;;9.10;6.88;;;26.70;48.50;;;;;;5043219;28;20049;-63
2023/06/26 07:34:46;;;;;;;9.20;6.68;;;26.80;48.60;;;;;;5041964;28;20025;-63
2023/06/26 07:37:12;;;;;;;7.65;5.72;;;26.90;48.40;;;;;;5042251;28;20032;-61
2023/06/26 07:39:37;;;;;;;9.93;5.70;;;27.10;48.50;;;;;;4947888;28;20037;-65
2023/06/26 07:42:03;;;;;;;7.95;6.07;;;27.20;48.50;;;;;;5037616;28;20072;-64
2023/06/26 07:44:29;;;;;;;15.48;6.30;;;27.40;48.40;;;;;;5041649;28;20029;-64
2023/06/26 07:46:54;;;;;;;7.70;5.97;;;27.50;48.20;;;;;;5043136;28;20029;-64
2023/06/26 07:49:20;;;;;;;10.65;6.60;;;27.60;48.20;;;;;;5041959;28;20029;-63
2023/06/26 07:51:46;;;;;;;8.18;5.82;;;27.80;48.10;;;;;;5042469;28;20021;-64
2023/06/26 07:54:11;;;;;;;7.03;5.88;;;27.90;47.80;;;;;;5048292;28;20025;-64
2023/06/26 07:56:54;;;;;;;6.88;5.45;;;28.10;47.40;;;;;;5044682;28;20096;-64
2023/06/26 07:59:22;;;;;;;6.97;5.63;;;28.20;47.00;;;;;;5042827;28;20026;-64
2023/06/26 08:01:47;;;;;;;7.78;5.68;;;28.40;47.40;;;;;;5041531;28;20029;-64
2023/06/26 08:04:13;;;;;;;9.88;5.20;;;28.50;46.90;;;;;;5041357;28;20045;-64
2023/06/26 08:06:40;;;;;;;7.32;5.72;;;28.60;46.50;;;;;;5041759;28;20029;-64
2023/06/26 08:09:07;;;;;;;8.07;5.60;;;28.70;46.30;;;;;;5042055;28;20037;-63
2023/06/26 08:11:33;;;;;;;6.25;5.15;;;28.80;46.40;;;;;;5041172;28;20025;-63
2023/06/26 08:13:59;;;;;;;7.40;5.90;;;28.90;46.50;;;;;;5041298;28;20033;-63
2023/06/26 08:16:25;;;;;;;8.75;5.43;;;29.00;46.70;;;;;;5042437;28;20553;-63
2023/06/26 08:18:51;;;;;;;10.15;5.68;;;29.20;46.70;;;;;;5040980;28;20033;-64
2023/06/26 08:21:16;;;;;;;8.50;5.60;;;29.30;46.50;;;;;;5041340;28;20041;-62
2023/06/26 08:23:42;;;;;;;7.53;5.60;;;29.40;46.10;;;;;;5041170;28;20036;-64
2023/06/26 08:26:08;;;;;;;8.02;5.75;;;29.60;46.00;;;;;;5042342;28;20041;-63
2023/06/26 08:28:33;;;;;;;7.35;5.95;;;29.70;46.20;;;;;;5040923;28;20083;-62
2023/06/26 08:30:59;;;;;;;7.75;5.63;;;29.80;45.70;;;;;;5041527;28;20561;-64
2023/06/26 08:33:25;;;;;;;6.43;5.05;;;29.90;44.80;;;;;;5043330;28;20109;-63
2023/06/26 08:35:51;;;;;;;7.47;5.15;;;30.10;45.40;;;;;;5043716;28;20033;-64
2023/06/26 08:38:16;;;;;;;7.13;5.03;;;30.20;45.20;;;;;;5038040;28;20017;-63
2023/06/26 08:40:42;;;;;;;5.78;5.18;;;30.30;44.90;;;;;;5042450;28;20022;-63
2023/06/26 08:43:08;;;;;;;14.77;5.10;;;30.40;44.50;;;;;;5041133;28;20484;-63
2023/06/26 08:45:35;;;;;;;7.35;5.07;;;30.50;44.60;;;;;;5041296;28;20026;-63
2023/06/26 08:48:03;;;;;;;9.15;5.75;;;30.60;44.90;;;;;;5040728;28;20401;-63
2023/06/26 08:50:33;;;;;;;8.43;5.30;;;30.80;44.10;;;;;;5042281;28;20037;-64
2023/06/26 08:53:28;;;;;;;6.90;4.97;;;30.90;42.90;;;;;;5040934;28;20064;-63
2023/06/26 08:55:57;;;;;;;7.05;4.65;;;31.00;42.20;;;;;;5039431;28;20057;-64
2023/06/26 08:58:23;;;;;;;5.32;3.65;;;31.00;41.60;;;;;;5040566;28;20028;-63
2023/06/26 09:00:49;;;;;;;9.45;4.05;;;31.10;40.10;;;;;;5041589;28;20022;-63
2023/06/26 09:03:15;;;;;;;5.45;3.70;;;31.20;38.70;;;;;;5040877;28;20049;-63
2023/06/26 09:05:41;;;;;;;6.03;3.47;;;31.30;38.50;;;;;;5040399;28;20033;-64
2023/06/26 09:08:07;;;;;;;4.95;3.85;;;31.40;37.80;;;;;;5041436;28;20147;-63
2023/06/26 09:10:33;;;;;;;4.70;3.72;;;31.40;37.80;;;;;;5019758;28;20041;-62
2023/06/26 09:13:01;;;;;;;9.45;3.85;;;31.50;37.80;;;;;;5040571;28;20026;-64
2023/06/26 09:15:28;;;;;;;6.82;3.25;;;31.70;36.00;;;;;;5040010;28;20025;-63
2023/06/26 09:17:57;;;;;;;7.78;3.50;;;31.70;35.90;;;;;;5015956;28;20057;-65
2023/06/26 09:20:22;;;;;;;3.90;3.30;;;31.70;35.30;;;;;;5041833;28;20040;-64
2023/06/26 09:22:48;;;;;;;3.97;3.58;;;31.80;34.50;;;;;;5044797;28;20085;-63
2023/06/26 09:25:14;;;;;;;4.93;3.40;;;31.80;34.50;;;;;;5044460;28;20045;-64
2023/06/26 09:27:42;;;;;;;6.68;3.60;;;31.90;34.50;;;;;;5045263;28;20021;-64
2023/06/26 09:30:08;;;;;;;5.85;3.55;;;31.90;34.20;;;;;;5026409;28;20033;-65
2023/06/26 09:32:37;;;;;;;3.70;3.40;;;31.90;33.90;;;;;;5044552;28;20035;-64
2023/06/26 09:35:04;;;;;;;4.93;3.55;;;31.90;34.10;;;;;;5040372;28;20420;-66
2023/06/26 09:37:30;;;;;;;3.40;3.00;;;31.90;33.90;;;;;;5045301;28;20025;-64
2023/06/26 09:39:56;;;;;;;4.90;3.72;;;31.90;34.10;;;;;;5044152;28;20065;-63
2023/06/26 09:42:23;;;;;;;3.53;3.22;;;31.90;33.40;;;;;;5039931;28;20026;-64
2023/06/26 09:44:49;;;;;;;3.78;3.30;;;31.90;33.10;;;;;;5045242;28;20112;-64
2023/06/26 09:47:19;;;;;;;5.82;3.63;;;31.90;33.10;;;;;;5044031;28;20472;-63
2023/06/26 09:49:45;;;;;;;3.83;3.20;;;31.90;33.40;;;;;;5026573;28;20041;-63
2023/06/26 09:52:19;;;;;;;4.78;3.72;;;31.80;33.30;;;;;;5044135;28;20052;-65
2023/06/26 09:54:45;;;;;;;5.63;3.63;;;31.90;33.70;;;;;;5039818;28;20013;-65
2023/06/26 09:57:12;;;;;;;3.90;3.30;;;31.90;33.50;;;;;;5027497;28;20032;-63
2023/06/26 09:59:40;;;;;;;4.05;3.65;;;32.00;33.70;;;;;;5043642;28;20025;-63
2023/06/26 10:02:06;;;;;;;8.63;3.22;;;32.10;33.60;;;;;;5044061;28;20059;-63
2023/06/26 10:04:32;;;;;;;11.40;3.70;;;32.20;33.30;;;;;;5044798;28;20026;-64
2023/06/26 10:07:01;;;;;;;4.78;4.10;;;32.20;32.40;;;;;;5044683;28;20562;-63
2023/06/26 10:09:28;;;;;;;4.50;3.35;;;32.20;32.80;;;;;;5043763;28;20041;-63
2023/06/26 10:11:59;;;;;;;6.18;3.20;;;32.20;31.80;;;;;;5026078;28;20037;-65
2023/06/26 10:14:33;;;;;;;4.88;3.58;;;32.20;31.50;;;;;;5041508;28;20425;-65
2023/06/26 10:17:03;;;;;;;5.78;3.40;;;32.20;32.20;;;;;;5043550;28;20033;-64
2023/06/26 10:19:31;;;;;;;6.38;3.72;;;32.30;31.80;;;;;;5044535;28;20021;-63
2023/06/26 10:21:59;;;;;;;4.97;2.97;;;32.30;31.70;;;;;;5040614;28;20018;-63
2023/06/26 10:24:28;;;;;;;5.15;3.30;;;32.40;32.20;;;;;;5042763;28;20958;-64
2023/06/26 10:27:00;;;;;;;6.35;3.33;;;32.40;32.00;;;;;;5043849;28;20400;-64
2023/06/26 10:29:27;;;;;;;4.05;3.58;;;32.50;31.40;;;;;;5025469;28;20043;-64
2023/06/26 10:31:57;;;;;;;4.50;3.58;;;32.60;32.50;;;;;;5044141;28;20026;-65
2023/06/26 10:34:23;;;;;;;8.05;3.78;;;32.70;32.10;;;;;;5044129;28;20025;-64
2023/06/26 10:37:03;;;;;;;5.40;3.50;;;32.70;32.20;;;;;;5043178;28;20030;-62
2023/06/26 10:39:49;;;;;;;4.50;3.55;;;32.80;30.80;;;;;;5045569;28;20056;-64
2023/06/26 10:42:18;;;;;;;5.18;4.00;;;32.90;30.90;;;;;;5047608;28;20033;-65
2023/06/26 10:44:46;;;;;;;5.75;3.25;;;32.90;31.40;;;;;;5040533;28;20033;-63
2023/06/26 10:47:31;;;;;;;3.97;3.45;;;32.90;31.40;;;;;;5034766;28;20022;-64
2023/06/26 10:49:57;;;;;;;7.93;3.38;;;33.00;31.60;;;;;;5044336;28;20037;-64
2023/06/26 10:52:26;;;;;;;3.65;3.30;;;33.10;31.60;;;;;;5042866;28;20051;-63
2023/06/26 10:54:55;;;;;;;5.50;3.63;;;33.20;31.30;;;;;;5043157;28;20075;-63
2023/06/26 10:57:25;;;;;;;6.25;3.92;;;33.30;30.50;;;;;;5043374;28;20496;-65
2023/06/26 11:00:13;;;;;;;5.07;3.70;;;33.30;30.10;;;;;;5042559;28;20045;-64
2023/06/26 11:02:52;;;;;;;4.82;3.75;;;33.40;29.50;;;;;;5042578;28;20022;-65
2023/06/26 11:05:26;;;;;;;4.60;3.33;;;33.50;30.20;;;;;;5043124;28;20028;-65
2023/06/26 11:08:10;;;;;;;6.40;3.78;;;33.50;29.90;;;;;;5042614;28;20083;-64
2023/06/26 11:10:48;;;;;;;;;;;33.50;29.40;;;;;;5037109;28;20113;-64
2023/06/26 11:13:16;;;;;;;5.70;3.60;;;33.50;29.80;;;;;;5043318;28;19909;-64
2023/06/26 11:15:43;;;;;;;4.10;3.70;;;33.60;30.00;;;;;;5043194;28;20056;-65
2023/06/26 11:18:09;;;;;;;5.13;3.70;;;33.60;29.50;;;;;;5042515;28;20041;-64
2023/06/26 11:20:36;;;;;;;7.82;3.50;;;33.60;29.40;;;;;;5042739;28;20494;-64
2023/06/26 11:23:07;;;;;;;4.10;3.45;;;33.70;29.30;;;;;;5043524;28;20112;-65
2023/06/26 11:25:37;;;;;;;4.07;3.55;;;33.70;29.40;;;;;;5043135;28;20045;-66
2023/06/26 11:28:09;;;;;;;4.07;3.58;;;33.70;29.00;;;;;;5042266;28;20063;-64
2023/06/26 11:30:35;;;;;;;4.53;4.10;;;33.60;28.80;;;;;;5042217;28;20025;-64
2023/06/26 11:33:04;;;;;;;8.65;4.35;;;33.50;28.50;;;;;;5042087;28;20481;-64
2023/06/26 11:35:30;;;;;;;5.63;4.30;;;33.30;28.40;;;;;;5037742;28;20503;-66
2023/06/26 11:38:00;;;;;;;4.72;3.83;;;33.20;28.60;;;;;;5042346;28;20089;-64
2023/06/26 11:40:27;;;;;;;7.53;3.95;;;33.00;28.80;;;;;;5024275;28;20029;-64
2023/06/26 11:42:55;;;;;;;10.82;3.80;;;32.90;29.40;;;;;;5040923;28;20021;-64
2023/06/26 11:45:21;;;;;;;7.78;4.45;;;32.80;29.40;;;;;;5024983;28;20037;-66
2023/06/26 11:47:46;;;;;;;7.97;4.60;;;32.70;29.50;;;;;;5038465;28;20079;-65
2023/06/26 11:50:19;;;;;;;4.60;3.88;;;32.70;29.60;;;;;;5041698;28;20033;-63
2023/06/26 11:52:45;;;;;;;6.10;4.50;;;32.60;30.00;;;;;;5041618;28;20061;-64
2023/06/26 11:55:11;;;;;;;6.55;4.50;;;32.60;29.90;;;;;;5041901;28;20547;-64
2023/06/26 11:57:37;;;;;;;7.30;3.78;;;32.50;30.00;;;;;;5042752;28;20037;-63
2023/06/26 12:00:16;;;;;;;7.95;4.78;;;32.50;30.30;;;;;;5041331;28;20025;-62
2023/06/26 12:02:46;;;;;;;9.63;4.38;;;32.40;30.10;;;;;;5041369;28;20026;-63
2023/06/26 12:05:13;;;;;;;4.80;4.05;;;32.40;30.20;;;;;;5041262;28;20081;-63
2023/06/26 12:07:42;;;;;;;4.15;3.78;;;32.30;30.80;;;;;;5043204;28;20026;-62
2023/06/26 12:10:10;;;;;;;5.07;4.15;;;32.40;31.70;;;;;;5040445;28;20029;-62
2023/06/26 12:12:36;;;;;;;6.18;4.78;;;32.50;31.80;;;;;;5043355;28;20025;-64
2023/06/26 12:15:02;;;;;;;5.00;3.90;;;32.70;32.00;;;;;;5044087;28;20033;-64
2023/06/26 12:17:28;;;;;;;5.93;4.43;;;32.90;31.50;;;;;;5043091;28;20029;-63
2023/06/26 12:19:54;;;;;;;4.60;3.78;;;33.10;31.30;;;;;;5044112;28;20044;-64
2023/06/26 12:22:19;;;;;;;7.13;3.95;;;33.30;31.10;;;;;;5041267;28;20029;-64
2023/06/26 12:24:46;;;;;;;4.85;3.85;;;33.40;30.70;;;;;;5040928;28;20504;-62
2023/06/26 12:27:14;;;;;;;7.10;4.90;;;33.50;30.60;;;;;;5036818;28;20025;-64
2023/06/26 12:29:51;;;;;;;5.97;4.15;;;33.50;30.20;;;;;;5041719;28;20029;-64
2023/06/26 12:32:18;;;;;;;7.43;3.95;;;33.50;30.00;;;;;;5041942;28;20048;-63
2023/06/26 12:34:49;;;;;;;4.47;4.07;;;33.40;30.20;;;;;;5041171;28;20025;-64
2023/06/26 12:37:15;;;;;;;6.30;4.65;;;33.40;30.20;;;;;;5040639;28;20017;-64
2023/06/26 12:39:51;;;;;;;7.80;4.28;;;33.30;30.20;;;;;;5040703;28;20032;-63
2023/06/26 12:42:27;;;;;;;7.50;4.50;;;33.30;30.60;;;;;;5040617;28;20067;-64
2023/06/26 12:44:57;;;;;;;7.63;4.10;;;33.30;30.40;;;;;;5040667;28;20048;-64